createdAt,value
2023-10-24T00:00:40.279Z,99606.70
2023-10-24T00:03:08.393Z,99608.33
2023-10-24T00:05:36.318Z,99606.61
2023-10-24T00:08:04.689Z,99604.15
2023-10-24T00:10:32.811Z,99602.48
2023-10-24T00:13:01.052Z,99604.25
2023-10-24T00:15:29.054Z,99607.21
2023-10-24T00:17:56.999Z,99606.11
2023-10-24T00:20:25.110Z,99602.51
2023-10-24T00:22:53.302Z,99596.56
2023-10-24T00:25:21.368Z,99596.27
2023-10-24T00:27:49.341Z,99594.89
2023-10-24T00:30:17.908Z,99591.88
2023-10-24T00:32:51.463Z,99589.95
2023-10-24T00:35:20.059Z,99590.98
2023-10-24T00:37:48.433Z,99594.42
2023-10-24T00:40:16.890Z,99590.72
2023-10-24T00:42:45.285Z,99590.63
2023-10-24T00:45:13.503Z,99596.35
2023-10-24T00:47:41.723Z,99593.41
2023-10-24T00:50:10.040Z,99590.23
2023-10-24T00:52:38.269Z,99585.02
2023-10-24T00:55:07.177Z,99583.95
2023-10-24T00:57:35.736Z,99591.89
2023-10-24T01:00:04.165Z,99587.54
2023-10-24T01:02:32.574Z,99590.70
2023-10-24T01:05:01.309Z,99593.00
2023-10-24T01:07:29.703Z,99597.75
2023-10-24T01:09:57.957Z,99592.08
2023-10-24T01:12:26.176Z,99594.01
2023-10-24T01:14:54.368Z,99592.66
2023-10-24T01:17:22.667Z,99597.14
2023-10-24T01:19:50.889Z,99595.17
2023-10-24T01:22:20.334Z,99591.64
2023-10-24T01:24:48.810Z,99591.77
2023-10-24T01:27:16.949Z,99593.05
2023-10-24T01:29:45.201Z,99594.11
2023-10-24T01:32:13.379Z,99598.70
2023-10-24T01:34:41.912Z,99597.29
2023-10-24T01:37:11.322Z,99604.60
2023-10-24T01:39:39.758Z,99605.79
2023-10-24T01:42:08.356Z,99610.77
2023-10-24T01:44:36.849Z,99615.49
2023-10-24T01:47:05.416Z,99616.25
2023-10-24T01:49:33.813Z,99616.46
2023-10-24T01:52:04.132Z,99614.45
2023-10-24T01:54:32.510Z,99623.00
2023-10-24T01:57:00.798Z,99628.00
2023-10-24T01:59:29.365Z,99632.19
2023-10-24T02:01:57.744Z,99636.21
2023-10-24T02:04:26.048Z,99635.90
2023-10-24T02:06:54.262Z,99637.56
2023-10-24T02:09:22.808Z,99673.31
2023-10-24T02:11:51.383Z,99690.42
2023-10-24T02:14:19.766Z,99692.25
2023-10-24T02:16:48.108Z,99687.75
2023-10-24T02:19:16.659Z,99695.52
2023-10-24T02:21:44.986Z,99696.15
2023-10-24T02:24:13.391Z,99700.89
2023-10-24T02:26:42.087Z,99702.70
2023-10-24T02:29:10.278Z,99699.96
2023-10-24T02:31:38.515Z,99705.33
2023-10-24T02:34:06.882Z,99703.60
2023-10-24T02:36:35.727Z,99703.32
2023-10-24T02:39:04.157Z,99694.73
2023-10-24T02:41:32.801Z,99692.41
2023-10-24T02:44:01.788Z,99694.89
2023-10-24T02:46:30.233Z,99698.48
2023-10-24T02:48:58.546Z,99699.17
2023-10-24T02:51:27.537Z,99701.47
2023-10-24T02:53:55.817Z,99699.58
2023-10-24T02:56:24.197Z,99702.64
2023-10-24T02:58:52.434Z,99702.71
2023-10-24T03:01:23.114Z,99705.98
2023-10-24T03:03:52.991Z,99697.25
2023-10-24T03:06:21.841Z,99698.95
2023-10-24T03:08:51.184Z,99689.52
2023-10-24T03:11:24.354Z,99693.05
2023-10-24T03:13:56.275Z,99689.13
2023-10-24T03:16:24.491Z,99693.58
2023-10-24T03:18:52.610Z,99693.83
2023-10-24T03:21:21.100Z,99692.67
2023-10-24T03:23:49.364Z,99694.64
2023-10-24T03:26:17.722Z,99691.59
2023-10-24T03:28:46.669Z,99686.91
2023-10-24T03:31:15.604Z,99684.26
2023-10-24T03:33:44.444Z,99676.52
2023-10-24T03:36:15.068Z,99664.61
2023-10-24T03:38:44.476Z,99656.99
2023-10-24T03:41:12.926Z,99648.75
2023-10-24T03:43:41.045Z,99641.33
2023-10-24T03:46:09.349Z,99633.47
2023-10-24T03:48:37.412Z,99624.36
2023-10-24T03:51:05.398Z,99619.80
2023-10-24T03:53:33.399Z,99607.48
2023-10-24T03:56:01.424Z,99597.10
2023-10-24T03:58:29.588Z,99589.55
2023-10-24T04:01:05.654Z,99582.27
2023-10-24T04:03:34.015Z,99577.22
2023-10-24T04:06:02.094Z,99567.71
2023-10-24T04:08:30.150Z,99559.31
2023-10-24T04:10:58.064Z,99551.70
2023-10-24T04:13:26.119Z,99544.38
2023-10-24T04:16:00.662Z,99538.42
2023-10-24T04:18:28.900Z,99536.64
2023-10-24T04:20:56.937Z,99529.91
2023-10-24T04:23:25.044Z,99524.33
2023-10-24T04:25:53.226Z,99516.94
2023-10-24T04:28:21.200Z,99515.96
2023-10-24T04:30:49.341Z,99504.23
2023-10-24T04:33:17.111Z,99497.70
2023-10-24T04:35:48.529Z,99492.69
2023-10-24T04:38:16.994Z,99484.13
2023-10-24T04:40:45.217Z,99474.98
2023-10-24T04:43:13.383Z,99465.11
2023-10-24T04:45:41.558Z,99451.59
2023-10-24T04:48:09.620Z,99440.75
2023-10-24T04:50:40.572Z,99431.64
2023-10-24T04:53:08.383Z,99425.20
2023-10-24T04:55:37.054Z,99415.17
2023-10-24T04:58:05.128Z,99398.55
2023-10-24T05:00:33.166Z,99391.65
2023-10-24T05:03:01.387Z,99378.11
2023-10-24T05:05:29.446Z,99375.05
2023-10-24T05:07:57.285Z,99364.80
2023-10-24T05:10:25.119Z,99357.52
2023-10-24T05:12:53.389Z,99348.77
2023-10-24T05:15:21.214Z,99338.02
2023-10-24T05:17:51.433Z,99328.89
2023-10-24T05:20:19.614Z,99326.64
2023-10-24T05:22:47.478Z,99323.02
2023-10-24T05:25:15.643Z,99313.50
2023-10-24T05:27:43.893Z,99313.02
2023-10-24T05:30:12.161Z,99311.62
2023-10-24T05:32:40.216Z,99309.57
2023-10-24T05:35:08.734Z,99307.84
2023-10-24T05:37:36.783Z,99309.98
2023-10-24T05:40:06.445Z,99312.30
2023-10-24T05:42:34.492Z,99316.25
2023-10-24T05:45:02.565Z,99326.00
2023-10-24T05:47:30.487Z,99337.23
2023-10-24T05:49:58.278Z,99348.30
2023-10-24T05:52:26.113Z,99358.08
2023-10-24T05:54:54.253Z,99367.08
2023-10-24T05:57:24.674Z,99374.19
2023-10-24T05:59:52.747Z,99382.11
2023-10-24T06:02:20.718Z,99404.45
2023-10-24T06:04:48.659Z,99422.45
2023-10-24T06:07:16.481Z,99443.95
2023-10-24T06:09:44.429Z,99466.67
2023-10-24T06:12:12.492Z,99491.55
2023-10-24T06:14:40.557Z,99526.57
2023-10-24T06:17:08.737Z,99560.41
2023-10-24T06:19:41.681Z,99588.08
2023-10-24T06:22:11.219Z,99614.31
2023-10-24T06:24:39.394Z,99642.46
2023-10-24T06:27:07.252Z,99672.15
2023-10-24T06:29:35.027Z,99691.25
2023-10-24T06:32:03.308Z,99719.94
2023-10-24T06:34:31.438Z,99742.38
2023-10-24T06:37:00.896Z,99763.13
2023-10-24T06:39:29.648Z,99779.18
2023-10-24T06:41:59.395Z,99788.86
2023-10-24T06:44:27.674Z,99796.94
2023-10-24T06:46:56.087Z,99807.38
2023-10-24T06:49:24.088Z,99820.89
2023-10-24T06:51:52.185Z,99829.36
2023-10-24T06:54:20.293Z,99835.64
2023-10-24T06:56:48.230Z,99857.92
2023-10-24T06:59:16.043Z,99878.05
2023-10-24T07:01:44.016Z,99895.09
2023-10-24T07:04:12.248Z,99910.80
2023-10-24T07:06:40.298Z,99924.91
2023-10-24T07:09:08.041Z,99937.82
2023-10-24T07:11:36.031Z,99946.38
2023-10-24T07:14:05.129Z,99949.35
2023-10-24T07:16:33.207Z,99913.14
2023-10-24T07:19:01.014Z,99849.59
2023-10-24T07:21:28.906Z,99851.11
2023-10-24T07:23:57.749Z,99853.21
2023-10-24T07:26:25.646Z,99853.41
2023-10-24T07:28:55.141Z,99856.55
2023-10-24T07:31:23.276Z,99857.36
2023-10-24T07:33:51.552Z,99863.38
2023-10-24T07:36:19.668Z,99871.96
2023-10-24T07:38:47.676Z,99880.67
2023-10-24T07:41:15.828Z,99887.23
2023-10-24T07:43:43.847Z,99898.13
2023-10-24T07:46:11.945Z,99896.48
2023-10-24T07:48:39.791Z,99897.30
2023-10-24T07:51:08.079Z,99898.07
2023-10-24T07:53:36.348Z,99898.02
2023-10-24T07:56:06.871Z,99900.04
2023-10-24T07:58:34.898Z,99899.70
2023-10-24T08:01:05.149Z,99895.61
2023-10-24T08:03:33.250Z,99895.84
2023-10-24T08:06:01.373Z,99902.92
2023-10-24T08:08:29.218Z,99904.56
2023-10-24T08:10:57.045Z,99901.89
2023-10-24T08:13:25.103Z,99900.90
2023-10-24T08:15:53.727Z,99902.16
2023-10-24T08:18:22.044Z,99902.65
2023-10-24T08:20:49.962Z,99901.13
2023-10-24T08:23:18.017Z,99898.34
2023-10-24T08:25:46.179Z,99900.30
2023-10-24T08:28:14.290Z,99899.22
2023-10-24T08:30:42.299Z,99895.45
2023-10-24T08:33:10.211Z,99893.94
2023-10-24T08:35:38.178Z,99888.75
2023-10-24T08:38:06.042Z,99881.11
2023-10-24T08:40:34.015Z,99882.59
2023-10-24T08:43:02.067Z,99879.41
2023-10-24T08:45:30.069Z,99879.58
2023-10-24T08:47:58.506Z,99879.30
2023-10-24T08:50:26.823Z,99870.03
2023-10-24T08:52:54.999Z,99870.39
2023-10-24T08:55:22.812Z,99868.04
2023-10-24T08:57:51.192Z,99861.66
2023-10-24T09:00:21.112Z,99858.02
2023-10-24T09:02:49.169Z,99858.41
2023-10-24T09:05:17.171Z,99860.24
2023-10-24T09:07:45.291Z,99859.53
2023-10-24T09:10:13.288Z,99855.64
2023-10-24T09:12:41.445Z,99854.73
2023-10-24T09:15:12.707Z,99859.27
2023-10-24T09:17:42.334Z,99859.33
2023-10-24T09:20:10.557Z,99858.98
2023-10-24T09:22:41.704Z,99863.97
2023-10-24T09:25:09.932Z,99866.52
2023-10-24T09:27:37.969Z,99865.01
2023-10-24T09:30:12.549Z,99866.38
2023-10-24T09:32:42.439Z,99865.63
2023-10-24T09:35:11.105Z,99863.27
2023-10-24T09:37:46.955Z,99860.95
2023-10-24T09:40:15.237Z,99864.20
2023-10-24T09:42:43.394Z,99869.20
2023-10-24T09:45:11.513Z,99866.94
2023-10-24T09:47:43.381Z,99866.98
2023-10-24T09:50:13.102Z,99866.11
2023-10-24T09:52:41.162Z,99859.13
2023-10-24T09:55:09.724Z,99857.33
2023-10-24T09:57:37.851Z,99853.95
2023-10-24T10:00:06.527Z,99857.05
2023-10-24T10:02:37.302Z,99857.92
2023-10-24T10:05:06.118Z,99854.54
2023-10-24T10:07:37.273Z,99850.98
2023-10-24T10:10:06.161Z,99849.40
2023-10-24T10:12:34.009Z,99847.81
2023-10-24T10:15:05.221Z,99846.95
2023-10-24T10:17:42.648Z,99843.07
2023-10-24T10:20:20.096Z,99843.71
2023-10-24T10:23:00.329Z,99837.90
2023-10-24T10:25:31.248Z,99841.39
2023-10-24T10:28:11.455Z,99845.48
2023-10-24T10:32:36.976Z,99844.09
2023-10-24T10:33:59.321Z,99841.58
2023-10-24T10:36:27.788Z,99837.38
2023-10-24T10:39:01.639Z,99837.88
2023-10-24T10:41:34.028Z,99836.32
2023-10-24T10:44:02.995Z,99836.14
2023-10-24T10:46:32.053Z,99836.84
2023-10-24T10:49:01.798Z,99834.63
2023-10-24T10:51:31.569Z,99838.64
2023-10-24T10:54:10.475Z,99832.58
2023-10-24T10:56:40.810Z,99834.11
2023-10-24T10:59:09.317Z,99834.59
2023-10-24T11:01:56.962Z,99838.95
2023-10-24T11:04:25.197Z,99837.16
2023-10-24T11:06:57.149Z,99836.58
2023-10-24T11:09:32.008Z,99836.38
2023-10-24T11:12:20.447Z,99839.16
2023-10-24T11:15:18.122Z,99834.81
2023-10-24T11:17:47.639Z,99834.98
2023-10-24T11:20:22.444Z,99827.46
2023-10-24T11:22:51.909Z,99831.80
2023-10-24T11:25:20.666Z,99828.56
2023-10-24T11:27:51.263Z,99834.16
2023-10-24T11:30:19.220Z,99833.13
2023-10-24T11:32:47.448Z,99832.10
2023-10-24T11:35:15.832Z,99827.11
2023-10-24T11:37:43.902Z,99828.59
2023-10-24T11:40:12.213Z,99826.30
2023-10-24T11:42:39.979Z,99823.64
2023-10-24T11:45:08.030Z,99823.09
2023-10-24T11:47:36.038Z,99820.36
2023-10-24T11:50:04.372Z,99822.08
2023-10-24T11:52:32.799Z,99813.91
2023-10-24T11:55:02.608Z,99807.95
2023-10-24T11:57:30.444Z,99802.48
2023-10-24T11:59:59.007Z,99796.73
2023-10-24T12:02:27.163Z,99799.06
2023-10-24T12:04:55.116Z,99804.70
2023-10-24T12:07:23.335Z,99810.61
2023-10-24T12:09:51.230Z,99813.05
2023-10-24T12:12:18.968Z,99807.61
2023-10-24T12:14:46.993Z,99804.94
2023-10-24T12:17:15.198Z,99808.27
2023-10-24T12:19:43.487Z,99812.83
2023-10-24T12:22:11.518Z,99812.36
2023-10-24T12:24:39.603Z,99816.25
2023-10-24T12:27:08.000Z,99813.59
2023-10-24T12:29:36.267Z,99816.61
2023-10-24T12:32:04.955Z,99815.77
2023-10-24T12:34:33.169Z,99814.73
2023-10-24T12:37:03.701Z,99810.36
2023-10-24T12:39:31.737Z,99807.05
2023-10-24T12:41:59.608Z,99805.20
2023-10-24T12:44:27.379Z,99801.23
2023-10-24T12:46:55.372Z,99806.02
2023-10-24T12:49:23.416Z,99801.23
2023-10-24T12:51:52.149Z,99804.61
2023-10-24T12:54:20.218Z,99806.66
2023-10-24T12:56:48.197Z,99805.19
2023-10-24T12:59:16.141Z,99804.24
2023-10-24T13:01:45.732Z,99808.60
2023-10-24T13:04:13.890Z,99805.95
2023-10-24T13:06:42.163Z,99801.93
2023-10-24T13:09:10.436Z,99800.36
2023-10-24T13:11:43.188Z,99794.94
2023-10-24T13:14:12.710Z,99793.88
2023-10-24T13:16:41.417Z,99790.56
2023-10-24T13:19:09.625Z,99790.10
2023-10-24T13:21:37.984Z,99788.35
2023-10-24T13:24:06.494Z,99796.92
2023-10-24T13:26:35.759Z,99802.95
2023-10-24T13:29:03.698Z,99805.91
2023-10-24T13:31:31.913Z,99808.44
2023-10-24T13:36:31.324Z,99833.61
2023-10-24T13:39:00.030Z,99834.69
2023-10-24T13:41:29.539Z,99835.10
2023-10-24T13:43:59.199Z,99840.66
2023-10-24T13:46:27.614Z,99850.41
2023-10-24T13:48:55.611Z,99861.21
2023-10-24T13:51:23.599Z,99857.36
2023-10-24T13:53:51.805Z,99860.52
2023-10-24T13:56:19.859Z,99865.17
2023-10-24T13:58:47.713Z,99864.48
2023-10-24T14:01:15.799Z,99870.32
2023-10-24T14:03:43.693Z,99873.90
2023-10-24T14:06:11.742Z,99875.30
2023-10-24T14:08:39.742Z,99879.25
2023-10-24T14:11:08.230Z,99879.41
2023-10-24T14:13:36.357Z,99877.74
2023-10-24T14:16:04.833Z,99879.59
2023-10-24T14:18:32.784Z,99881.13
2023-10-24T14:21:00.965Z,99878.63
2023-10-24T14:23:28.759Z,99874.63
2023-10-24T14:25:57.026Z,99873.41
2023-10-24T14:28:29.395Z,99865.64
2023-10-24T14:30:57.716Z,99871.19
2023-10-24T14:33:25.997Z,99870.23
2023-10-24T14:35:53.831Z,99872.14
2023-10-24T14:38:21.694Z,99871.77
2023-10-24T14:40:49.663Z,99873.94
2023-10-24T14:43:17.754Z,99872.46
2023-10-24T14:45:45.863Z,99872.16
2023-10-24T14:48:14.061Z,99870.70
2023-10-24T14:50:42.315Z,99874.47
2023-10-24T14:53:11.345Z,99872.60
2023-10-24T14:55:39.354Z,99870.14
2023-10-24T14:58:07.342Z,99869.05
2023-10-24T15:00:37.397Z,99859.64
2023-10-24T15:03:08.574Z,99859.08
2023-10-24T15:05:38.254Z,99858.58
2023-10-24T15:08:09.722Z,99856.16
2023-10-24T15:10:38.449Z,99856.58
2023-10-24T15:13:06.656Z,99860.05
2023-10-24T15:15:34.704Z,99866.98
2023-10-24T15:18:02.636Z,99869.05
2023-10-24T15:20:30.537Z,99872.46
2023-10-24T15:22:59.735Z,99877.23
2023-10-24T15:25:27.684Z,99880.80
2023-10-24T15:27:55.816Z,99886.74
2023-10-24T15:30:23.904Z,99888.44
2023-10-24T15:32:51.974Z,99885.21
2023-10-24T15:35:20.029Z,99882.74
2023-10-24T15:37:48.327Z,99881.02
2023-10-24T15:40:16.340Z,99883.19
2023-10-24T15:42:44.386Z,99887.75
2023-10-24T15:45:13.116Z,99893.66
2023-10-24T15:47:41.841Z,99897.19
2023-10-24T15:50:10.171Z,99892.14
2023-10-24T15:52:38.525Z,99894.72
2023-10-24T15:55:24.221Z,99883.77
2023-10-24T15:57:59.195Z,99881.29
2023-10-24T16:00:30.435Z,99889.96
2023-10-24T16:02:58.935Z,99883.67
2023-10-24T16:05:27.153Z,99883.53
2023-10-24T16:07:56.579Z,99889.56
2023-10-24T16:10:24.835Z,99886.55
2023-10-24T16:12:52.995Z,99886.12
2023-10-24T16:15:21.002Z,99890.34
2023-10-24T16:17:49.241Z,99899.37
2023-10-24T16:20:17.661Z,99899.10
2023-10-24T16:22:45.929Z,99893.30
2023-10-24T16:25:14.262Z,99892.84
2023-10-24T16:27:42.308Z,99889.56
2023-10-24T16:30:11.068Z,99892.33
2023-10-24T16:32:39.654Z,99892.19
2023-10-24T16:35:08.360Z,99887.77
2023-10-24T16:37:36.634Z,99886.48
2023-10-24T16:40:05.109Z,99880.39
2023-10-24T16:42:32.986Z,99875.63
2023-10-24T16:45:01.007Z,99875.54
2023-10-24T16:47:29.055Z,99875.50
2023-10-24T16:49:57.408Z,99878.08
2023-10-24T16:52:25.488Z,99878.71
2023-10-24T16:54:53.535Z,99880.17
2023-10-24T16:57:21.661Z,99883.80
2023-10-24T16:59:49.594Z,99873.98
2023-10-24T17:02:21.122Z,99860.71
2023-10-24T17:04:49.544Z,99863.52
2023-10-24T17:07:17.565Z,99859.05
2023-10-24T17:09:45.601Z,99860.95
2023-10-24T17:12:13.848Z,99860.76
2023-10-24T17:14:42.044Z,99860.63
2023-10-24T17:17:10.380Z,99868.98
2023-10-24T17:19:38.659Z,99874.63
2023-10-24T17:22:06.817Z,99873.91
2023-10-24T17:24:34.779Z,99875.52
2023-10-24T17:27:02.759Z,99872.85
2023-10-24T17:29:30.707Z,99873.55
2023-10-24T17:31:58.786Z,99876.55
2023-10-24T17:34:26.894Z,99879.37
2023-10-24T17:36:55.115Z,99878.42
2023-10-24T17:39:23.102Z,99866.73
2023-10-24T17:41:51.188Z,99860.60
2023-10-24T17:44:19.464Z,99855.08
2023-10-24T17:46:47.530Z,99857.43
2023-10-24T17:49:15.532Z,99867.09
2023-10-24T17:51:43.918Z,99864.84
2023-10-24T17:54:12.558Z,99862.73
2023-10-24T17:56:44.051Z,99859.41
2023-10-24T17:59:12.906Z,99866.10
2023-10-24T18:01:41.155Z,99866.73
2023-10-24T18:04:09.447Z,99863.60
2023-10-24T18:06:37.624Z,99870.19
2023-10-24T18:09:05.858Z,99874.23
2023-10-24T18:11:35.366Z,99879.61
2023-10-24T18:14:04.830Z,99890.81
2023-10-24T18:16:33.125Z,99894.06
2023-10-24T18:19:02.980Z,99891.20
2023-10-24T18:21:31.087Z,99884.11
2023-10-24T18:23:59.306Z,99886.23
2023-10-24T18:26:27.513Z,99893.86
2023-10-24T18:28:55.627Z,99894.98
2023-10-24T18:31:26.060Z,99897.01
2023-10-24T18:33:54.043Z,99892.48
2023-10-24T18:36:22.068Z,99893.69
2023-10-24T18:38:50.095Z,99885.23
2023-10-24T18:41:20.385Z,99883.77
2023-10-24T18:43:48.748Z,99875.96
2023-10-24T18:46:16.902Z,99866.41
2023-10-24T18:48:45.105Z,99870.32
2023-10-24T18:51:15.719Z,99866.63
2023-10-24T18:53:44.190Z,99860.11
2023-10-24T18:56:12.332Z,99862.41
2023-10-24T18:58:40.496Z,99863.52
2023-10-24T19:01:11.045Z,99864.31
2023-10-24T19:03:40.432Z,99859.23
2023-10-24T19:06:08.718Z,99857.83
2023-10-24T19:08:36.902Z,99854.77
2023-10-24T19:11:05.317Z,99851.38
2023-10-24T19:13:35.479Z,99847.19
2023-10-24T19:16:05.595Z,99847.83
2023-10-24T19:18:33.906Z,99850.92
2023-10-24T19:21:02.600Z,99842.02
2023-10-24T19:23:31.051Z,99843.43
2023-10-24T19:25:59.435Z,99853.38
2023-10-24T19:28:30.471Z,99859.14
2023-10-24T19:30:59.029Z,99859.41
2023-10-24T19:33:27.385Z,99860.54
2023-10-24T19:35:58.036Z,99859.79
2023-10-24T19:38:27.036Z,99858.89
2023-10-24T19:40:55.981Z,99857.08
2023-10-24T19:43:24.497Z,99859.45
2023-10-24T19:45:53.558Z,99860.42
2023-10-24T19:48:21.918Z,99861.56
2023-10-24T19:50:50.366Z,99856.50
2023-10-24T19:53:18.929Z,99853.64
2023-10-24T19:55:51.842Z,99848.27
2023-10-24T19:58:26.847Z,99850.39
2023-10-24T20:00:55.215Z,99848.05
2023-10-24T20:03:23.588Z,99848.52
2023-10-24T20:05:52.688Z,99846.13
2023-10-24T20:08:21.464Z,99843.42
2023-10-24T20:11:40.775Z,99847.95
2023-10-24T20:13:38.322Z,99851.20
2023-10-24T20:16:07.031Z,99852.48
2023-10-24T20:18:35.388Z,99846.14
2023-10-24T20:21:04.085Z,99838.84
2023-10-24T20:23:32.847Z,99846.53
2023-10-24T20:26:01.125Z,99845.27
2023-10-24T20:28:29.208Z,99840.71
2023-10-24T20:30:57.156Z,99840.04
2023-10-24T20:33:25.162Z,99840.85
2023-10-24T20:35:53.236Z,99834.58
2023-10-24T20:38:21.355Z,99827.14
2023-10-24T20:40:49.220Z,99824.15
2023-10-24T20:43:17.363Z,99823.59
2023-10-24T20:45:47.335Z,99821.52
2023-10-24T20:48:16.180Z,99824.77
2023-10-24T20:50:44.459Z,99822.92
2023-10-24T20:53:12.457Z,99817.75
2023-10-24T20:55:43.285Z,99811.29
2023-10-24T20:58:11.404Z,99807.04
2023-10-24T21:00:39.446Z,99808.08
2023-10-24T21:03:07.561Z,99800.64
2023-10-24T21:05:35.662Z,99800.36
2023-10-24T21:08:03.841Z,99802.04
2023-10-24T21:10:32.528Z,99800.46
2023-10-24T21:13:00.578Z,99800.79
2023-10-24T21:15:31.366Z,99803.30
2023-10-24T21:17:59.427Z,99799.91
2023-10-24T21:20:27.359Z,99799.10
2023-10-24T21:22:55.261Z,99801.19
2023-10-24T21:25:23.237Z,99804.39
2023-10-24T21:27:52.569Z,99800.21
2023-10-24T21:30:20.573Z,99799.20
2023-10-24T21:32:48.517Z,99802.66
2023-10-24T21:35:16.597Z,99794.64
2023-10-24T21:37:44.450Z,99789.92
2023-10-24T21:40:13.670Z,99796.02
2023-10-24T21:42:42.205Z,99794.49
2023-10-24T21:45:10.928Z,99789.60
2023-10-24T21:47:39.060Z,99791.94
2023-10-24T21:50:07.466Z,99793.65
2023-10-24T21:52:35.464Z,99792.92
2023-10-24T21:55:04.792Z,99786.09
2023-10-24T21:57:32.685Z,99782.89
2023-10-24T22:00:00.731Z,99782.58
2023-10-24T22:02:28.768Z,99780.42
2023-10-24T22:04:56.819Z,99777.83
2023-10-24T22:07:25.032Z,99779.12
2023-10-24T22:09:52.882Z,99782.73
2023-10-24T22:12:20.843Z,99780.42
2023-10-24T22:14:48.848Z,99776.63
2023-10-24T22:17:16.944Z,99777.84
2023-10-24T22:19:44.858Z,99775.80
2023-10-24T22:22:12.967Z,99772.96
2023-10-24T22:24:41.172Z,99765.14
2023-10-24T22:27:09.045Z,99764.20
2023-10-24T22:29:37.094Z,99762.41
2023-10-24T22:32:05.302Z,99769.17
2023-10-24T22:34:33.638Z,99772.81
2023-10-24T22:37:01.606Z,99776.92
2023-10-24T22:39:29.522Z,99782.31
2023-10-24T22:41:57.356Z,99780.82
2023-10-24T22:44:25.533Z,99787.20
2023-10-24T22:46:53.900Z,99793.46
2023-10-24T22:49:24.059Z,99796.77
2023-10-24T22:51:52.136Z,99799.91
2023-10-24T22:54:20.405Z,99803.16
2023-10-24T22:56:48.453Z,99798.79
2023-10-24T22:59:18.721Z,99793.19
2023-10-24T23:01:48.017Z,99795.57
2023-10-24T23:04:15.909Z,99795.41
2023-10-24T23:06:44.033Z,99792.98
2023-10-24T23:09:12.362Z,99812.42
2023-10-24T23:11:40.424Z,99828.95
2023-10-24T23:14:08.979Z,99831.23
2023-10-24T23:16:37.159Z,99835.59
2023-10-24T23:19:05.625Z,99836.66
2023-10-24T23:21:33.630Z,99833.17
2023-10-24T23:24:01.697Z,99822.10
2023-10-24T23:26:29.808Z,99813.31
2023-10-24T23:28:57.724Z,99802.95
2023-10-24T23:31:25.671Z,99788.34
2023-10-24T23:33:53.824Z,99776.52
2023-10-24T23:36:21.771Z,99775.15
2023-10-24T23:38:49.643Z,99764.84
2023-10-24T23:41:20.303Z,99748.57
2023-10-24T23:43:48.529Z,99740.55
2023-10-24T23:46:16.776Z,99721.83
2023-10-24T23:48:44.923Z,99714.55
2023-10-24T23:51:13.361Z,99708.05
2023-10-24T23:53:42.051Z,99709.52
2023-10-24T23:56:10.214Z,99710.17
2023-10-24T23:58:38.463Z,99710.23
